Time;durP1;ratioP1;P1;durP2;ratioP2;P2;SDS_P1;SDS_P2;PMS_P1;PMS_P2;Temp;Humidity;BMP_temperature;BMP_pressure;BME280_temperature;BME280_humidity;BME280_pressure;Samples;Min_cycle;Max_cycle;Signal;HPM_P1;HPM_P2
2021/06/04 00:02:04;;;;;;;7.95;5.35;;;17.80;99.90;;;;;;4992455;28;20065;-72
2021/06/04 00:04:30;;;;;;;7.75;4.70;;;17.80;99.90;;;;;;4987565;28;20061;-72
2021/06/04 00:06:55;;;;;;;8.40;5.18;;;17.80;99.90;;;;;;5008280;28;20042;-72
2021/06/04 00:09:26;;;;;;;7.30;4.63;;;17.80;99.90;;;;;;4992916;28;20034;-72
2021/06/04 00:11:55;;;;;;;9.20;5.03;;;17.80;99.90;;;;;;4980919;28;20464;-72
2021/06/04 00:14:26;;;;;;;8.63;4.72;;;17.80;99.90;;;;;;4996136;28;20026;-72
2021/06/04 00:16:58;;;;;;;6.47;4.78;;;17.80;99.90;;;;;;4995043;28;20088;-72
2021/06/04 00:19:25;;;;;;;7.50;5.30;;;17.80;99.90;;;;;;4994164;28;20050;-72
2021/06/04 00:21:53;;;;;;;8.25;4.70;;;17.70;99.90;;;;;;4997042;28;20209;-72
2021/06/04 00:24:22;;;;;;;7.90;4.45;;;17.80;99.90;;;;;;4993430;28;20513;-72
2021/06/04 00:26:48;;;;;;;7.10;4.38;;;17.80;99.90;;;;;;4996154;28;20035;-72
2021/06/04 00:29:14;;;;;;;7.28;5.00;;;17.70;99.90;;;;;;4976259;28;20037;-72
2021/06/04 00:31:39;;;;;;;7.90;5.03;;;17.70;99.90;;;;;;4993978;28;20033;-72
2021/06/04 00:34:11;;;;;;;7.10;5.10;;;17.70;99.90;;;;;;4988453;28;20395;-72
2021/06/04 00:36:37;;;;;;;7.53;4.32;;;17.60;99.90;;;;;;5005405;28;20037;-72
2021/06/04 00:39:07;;;;;;;6.60;4.75;;;17.60;99.90;;;;;;4991264;28;20033;-72
2021/06/04 00:41:43;;;;;;;9.15;5.55;;;17.60;99.90;;;;;;4978057;28;20045;-72
2021/06/04 00:44:12;;;;;;;12.63;4.80;;;17.60;99.90;;;;;;4988162;28;20467;-72
2021/06/04 00:46:40;;;;;;;7.35;4.82;;;17.60;99.90;;;;;;4994780;28;20042;-72
2021/06/04 00:49:08;;;;;;;9.13;4.85;;;17.60;99.90;;;;;;4995136;28;20113;-72
2021/06/04 00:51:41;;;;;;;10.98;4.57;;;17.60;99.90;;;;;;4987555;28;20035;-72
2021/06/04 00:54:10;;;;;;;5.72;4.60;;;17.60;99.90;;;;;;4983111;28;20022;-72
2021/06/04 00:56:36;;;;;;;8.10;5.53;;;17.50;99.90;;;;;;4996740;28;20168;-72
2021/06/04 00:59:02;;;;;;;8.05;4.82;;;17.50;99.90;;;;;;4980835;28;20503;-72
2021/06/04 01:01:31;;;;;;;8.02;4.45;;;17.50;99.90;;;;;;4996378;28;20034;-72
2021/06/04 01:04:10;;;;;;;7.72;4.88;;;17.50;99.90;;;;;;4990263;28;20046;-72
2021/06/04 01:06:45;;;;;;;7.88;4.78;;;17.50;99.90;;;;;;4990810;28;20038;-72
2021/06/04 01:09:29;;;;;;;6.53;4.57;;;17.50;99.90;;;;;;4995113;28;20056;-72
2021/06/04 01:12:05;;;;;;;8.05;4.85;;;17.50;99.90;;;;;;4988427;28;20551;-72
2021/06/04 01:14:36;;;;;;;5.95;4.35;;;17.50;99.90;;;;;;4990338;28;20584;-72
2021/06/04 01:17:09;;;;;;;8.57;4.40;;;17.40;99.90;;;;;;4990457;28;20026;-72
2021/06/04 01:19:46;;;;;;;8.05;4.90;;;17.40;99.90;;;;;;4981927;28;20278;-72
2021/06/04 01:22:29;;;;;;;8.18;4.80;;;17.40;99.90;;;;;;4995612;28;20363;-72
2021/06/04 01:25:00;;;;;;;6.50;4.82;;;17.40;99.90;;;;;;4989587;28;20128;-72
2021/06/04 01:27:35;;;;;;;6.73;4.20;;;17.40;99.90;;;;;;4996722;28;20245;-72
2021/06/04 01:30:20;;;;;;;9.85;5.10;;;17.40;99.90;;;;;;4992549;28;20500;-73
2021/06/04 01:32:45;;;;;;;9.40;4.93;;;17.40;99.90;;;;;;4995311;28;20026;-73
2021/06/04 01:35:23;;;;;;;8.93;4.78;;;17.40;99.90;;;;;;4979390;28;20468;-72
2021/06/04 01:37:49;;;;;;;12.45;4.45;;;17.40;99.90;;;;;;4994256;28;20129;-72
2021/06/04 01:40:32;;;;;;;7.05;4.47;;;17.30;99.90;;;;;;4977143;28;20425;-72
2021/06/04 01:43:02;;;;;;;6.85;4.30;;;17.40;99.90;;;;;;4980570;28;20042;-72
2021/06/04 01:45:36;;;;;;;7.93;4.90;;;17.40;99.90;;;;;;4981950;28;20380;-73
2021/06/04 01:48:14;;;;;;;6.85;5.13;;;17.40;99.90;;;;;;4993775;28;20034;-72
2021/06/04 01:50:49;;;;;;;9.27;4.55;;;17.40;99.90;;;;;;4990842;28;20117;-72
2021/06/04 01:53:22;;;;;;;7.95;4.90;;;17.40;99.90;;;;;;4983057;28;20607;-73
2021/06/04 01:55:53;;;;;;;7.70;4.25;;;17.40;99.90;;;;;;4983320;28;20038;-73
2021/06/04 01:58:35;;;;;;;9.33;4.23;;;17.30;99.90;;;;;;4991979;28;20109;-73
2021/06/04 02:01:18;;;;;;;;;;;17.30;99.90;;;;;;4997848;28;20037;-73
2021/06/04 02:03:44;;;;;;;9.73;4.35;;;17.20;99.90;;;;;;4996516;28;19925;-72
2021/06/04 02:06:12;;;;;;;9.13;5.00;;;17.20;99.90;;;;;;4994865;28;20030;-73
2021/06/04 02:08:45;;;;;;;6.53;4.47;;;17.20;99.90;;;;;;4998356;28;20045;-73
2021/06/04 02:11:12;;;;;;;6.88;4.60;;;17.20;99.90;;;;;;4991019;28;20030;-73
2021/06/04 02:13:41;;;;;;;10.52;4.90;;;17.20;99.90;;;;;;4998096;28;20037;-72
2021/06/04 02:16:18;;;;;;;6.38;4.40;;;17.20;99.90;;;;;;4997467;28;20030;-73
2021/06/04 02:18:58;;;;;;;7.97;4.65;;;17.20;99.90;;;;;;4989386;28;20026;-73
2021/06/04 02:21:30;;;;;;;6.38;4.57;;;17.20;99.90;;;;;;4993832;28;20507;-73
2021/06/04 02:24:08;;;;;;;7.07;4.72;;;17.20;99.90;;;;;;4990950;28;20026;-73
2021/06/04 02:26:44;;;;;;;7.63;5.07;;;17.20;99.90;;;;;;4996492;28;20121;-73
2021/06/04 02:29:33;;;;;;;6.85;5.32;;;17.20;99.90;;;;;;4996305;28;20030;-73
2021/06/04 02:32:07;;;;;;;8.82;5.43;;;17.20;99.90;;;;;;4982010;28;20041;-73
2021/06/04 02:34:50;;;;;;;9.73;5.70;;;17.10;99.90;;;;;;4994997;28;20027;-73
2021/06/04 02:37:23;;;;;;;9.32;4.78;;;17.20;99.90;;;;;;4994231;28;20265;-73
2021/06/04 02:39:52;;;;;;;7.85;5.43;;;17.10;99.90;;;;;;4995181;28;20023;-73
2021/06/04 02:42:33;;;;;;;7.57;5.05;;;17.20;99.90;;;;;;4997221;28;20152;-73
2021/06/04 02:45:15;;;;;;;6.90;5.00;;;17.10;99.90;;;;;;4981241;28;20023;-72
2021/06/04 02:47:46;;;;;;;6.55;4.60;;;17.10;99.90;;;;;;4991528;28;20037;-72
2021/06/04 02:50:29;;;;;;;8.57;5.28;;;17.10;99.90;;;;;;4997550;28;20041;-73
2021/06/04 02:52:57;;;;;;;6.07;4.97;;;17.10;99.90;;;;;;4997330;28;20073;-73
2021/06/04 02:55:32;;;;;;;7.53;5.00;;;17.10;99.90;;;;;;4988670;28;20030;-73
2021/06/04 02:58:02;;;;;;;10.02;5.43;;;17.00;99.90;;;;;;4982489;28;20026;-73
2021/06/04 03:00:42;;;;;;;8.73;5.45;;;17.00;99.90;;;;;;4993979;28;20030;-73
2021/06/04 03:03:10;;;;;;;8.52;5.00;;;17.00;99.90;;;;;;4994550;28;20594;-72
2021/06/04 03:05:39;;;;;;;6.40;5.07;;;17.00;99.90;;;;;;4992007;28;20041;-73
2021/06/04 03:08:06;;;;;;;6.88;5.03;;;17.00;99.90;;;;;;4995077;28;20040;-72
2021/06/04 03:10:41;;;;;;;10.45;5.63;;;17.00;99.90;;;;;;4996113;28;20599;-73
2021/06/04 03:13:09;;;;;;;8.85;5.15;;;17.00;99.90;;;;;;4995814;28;20472;-72
2021/06/04 03:15:41;;;;;;;8.02;5.82;;;17.00;99.90;;;;;;4980154;28;20066;-72
2021/06/04 03:18:10;;;;;;;8.75;5.80;;;16.90;99.90;;;;;;4991253;28;20026;-72
2021/06/04 03:20:37;;;;;;;10.13;5.80;;;16.90;99.90;;;;;;4991979;28;20027;-73
2021/06/04 03:23:05;;;;;;;7.07;5.50;;;16.90;99.90;;;;;;4993749;28;20546;-72
2021/06/04 03:25:39;;;;;;;11.15;5.82;;;16.80;99.90;;;;;;4990760;28;20460;-72
2021/06/04 03:28:09;;;;;;;7.25;5.13;;;16.80;99.90;;;;;;4981269;28;20041;-72
2021/06/04 03:30:39;;;;;;;7.57;5.25;;;16.80;99.90;;;;;;4994739;28;20029;-72
2021/06/04 03:33:05;;;;;;;9.93;5.75;;;16.80;99.90;;;;;;4990852;28;20025;-73
2021/06/04 03:35:35;;;;;;;7.40;5.20;;;16.80;99.90;;;;;;4993562;28;20041;-72
2021/06/04 03:38:01;;;;;;;7.97;5.47;;;16.80;99.90;;;;;;4998951;28;20044;-72
2021/06/04 03:40:27;;;;;;;9.32;5.88;;;16.80;99.90;;;;;;4994740;28;20488;-72
2021/06/04 03:42:54;;;;;;;9.20;5.90;;;16.80;99.90;;;;;;4978790;28;20653;-72
2021/06/04 03:45:29;;;;;;;12.07;6.30;;;16.80;99.90;;;;;;4992196;28;20035;-72
2021/06/04 03:47:57;;;;;;;8.05;5.82;;;16.80;99.90;;;;;;4995540;28;20033;-72
2021/06/04 03:50:22;;;;;;;9.93;5.97;;;16.80;99.90;;;;;;4989224;28;20022;-72
2021/06/04 03:52:48;;;;;;;15.60;5.80;;;16.80;99.90;;;;;;4993525;28;20030;-72
2021/06/04 03:55:16;;;;;;;10.57;5.45;;;16.80;99.90;;;;;;4996420;28;20077;-72
2021/06/04 03:57:49;;;;;;;8.82;5.32;;;16.80;99.90;;;;;;4995231;28;20026;-72
2021/06/04 04:00:21;;;;;;;17.23;5.85;;;16.80;99.90;;;;;;4994456;28;20037;-73
2021/06/04 04:02:47;;;;;;;8.85;6.15;;;16.80;99.90;;;;;;4989132;28;20065;-72
2021/06/04 04:05:15;;;;;;;7.75;5.80;;;16.80;99.90;;;;;;4992947;28;20030;-72
2021/06/04 04:07:41;;;;;;;7.03;5.78;;;16.90;99.90;;;;;;4991404;28;20048;-73
2021/06/04 04:10:09;;;;;;;6.85;6.07;;;16.90;99.90;;;;;;4987617;28;20027;-72
2021/06/04 04:12:35;;;;;;;8.10;5.68;;;16.90;99.90;;;;;;4990035;28;20035;-72
2021/06/04 04:15:00;;;;;;;8.90;5.82;;;16.90;99.90;;;;;;4994965;28;20444;-72
2021/06/04 04:17:29;;;;;;;8.85;5.70;;;17.00;99.90;;;;;;4992861;28;20039;-73
2021/06/04 04:19:55;;;;;;;7.03;4.93;;;17.10;99.90;;;;;;4990779;28;20023;-73
2021/06/04 04:22:21;;;;;;;8.35;5.32;;;17.10;99.90;;;;;;4988909;28;20038;-72
2021/06/04 04:24:46;;;;;;;11.73;5.55;;;17.10;99.90;;;;;;4990365;28;20077;-72
2021/06/04 04:27:14;;;;;;;10.82;5.07;;;17.20;99.90;;;;;;4993689;28;20046;-72
2021/06/04 04:29:42;;;;;;;10.50;5.43;;;17.20;99.90;;;;;;4990764;28;20030;-72
2021/06/04 04:32:13;;;;;;;9.05;4.68;;;17.20;99.90;;;;;;4989347;28;20075;-72
2021/06/04 04:34:40;;;;;;;7.60;4.75;;;17.30;99.90;;;;;;4995612;28;20061;-72
2021/06/04 04:37:05;;;;;;;7.90;5.43;;;17.30;99.90;;;;;;4979762;28;20116;-72
2021/06/04 04:39:35;;;;;;;7.85;4.65;;;17.40;99.90;;;;;;4982926;28;20034;-72
2021/06/04 04:42:04;;;;;;;8.48;5.65;;;17.40;99.90;;;;;;4994331;28;20040;-72
2021/06/04 04:44:34;;;;;;;8.93;4.90;;;17.40;99.90;;;;;;4996833;28;20626;-72
2021/06/04 04:47:00;;;;;;;9.98;5.22;;;17.50;99.90;;;;;;4996385;28;20023;-72
2021/06/04 04:49:28;;;;;;;7.05;4.90;;;17.50;99.90;;;;;;4989875;28;20133;-72
2021/06/04 04:51:54;;;;;;;7.20;4.75;;;17.60;99.90;;;;;;4987835;28;20648;-72
2021/06/04 04:54:20;;;;;;;13.68;4.82;;;17.60;99.90;;;;;;4990858;28;20046;-72
2021/06/04 04:56:48;;;;;;;8.38;5.15;;;17.70;99.90;;;;;;4993935;28;20046;-72
2021/06/04 04:59:16;;;;;;;9.25;5.30;;;17.70;99.90;;;;;;4992202;28;20463;-72
2021/06/04 05:01:44;;;;;;;7.10;5.10;;;17.70;99.90;;;;;;4976163;28;20038;-72
2021/06/04 05:04:15;;;;;;;7.32;5.28;;;17.80;99.90;;;;;;5006887;28;20125;-73
2021/06/04 05:06:40;;;;;;;8.45;5.22;;;17.80;99.90;;;;;;4989578;28;20125;-73
2021/06/04 05:09:08;;;;;;;6.47;5.32;;;17.90;99.90;;;;;;4995422;28;20157;-73
2021/06/04 05:11:34;;;;;;;7.95;5.40;;;17.90;99.90;;;;;;4994847;28;20054;-74
2021/06/04 05:14:02;;;;;;;7.10;4.80;;;17.90;99.90;;;;;;4978824;28;20060;-74
2021/06/04 05:16:27;;;;;;;8.52;4.78;;;18.00;99.90;;;;;;4978115;28;20061;-72
2021/06/04 05:18:55;;;;;;;7.05;4.68;;;18.10;99.90;;;;;;4987984;28;20062;-72
2021/06/04 05:21:21;;;;;;;7.90;4.80;;;18.10;99.90;;;;;;4989405;28;20022;-72
2021/06/04 05:23:49;;;;;;;7.55;4.50;;;18.10;99.90;;;;;;4995405;28;20044;-72
2021/06/04 05:26:17;;;;;;;5.72;4.32;;;18.20;99.90;;;;;;4997253;28;20027;-72
2021/06/04 05:28:43;;;;;;;7.68;5.22;;;18.20;99.90;;;;;;4996914;28;20044;-72
2021/06/04 05:31:10;;;;;;;8.15;4.85;;;18.30;99.90;;;;;;4993156;28;20540;-72
2021/06/04 05:33:37;;;;;;;7.88;5.00;;;18.30;99.90;;;;;;4982619;28;20035;-72
2021/06/04 05:36:05;;;;;;;7.82;4.78;;;18.40;99.90;;;;;;4999751;28;20023;-72
2021/06/04 05:38:31;;;;;;;8.50;4.50;;;18.40;99.90;;;;;;4982488;28;20027;-72
2021/06/04 05:40:57;;;;;;;8.93;4.50;;;18.50;99.90;;;;;;4979098;28;20782;-72
2021/06/04 05:43:26;;;;;;;7.28;4.93;;;18.60;99.90;;;;;;4976314;28;20034;-72
2021/06/04 05:45:54;;;;;;;7.68;4.28;;;18.70;99.90;;;;;;4988670;28;20560;-72
2021/06/04 05:48:20;;;;;;;7.68;4.30;;;18.70;99.90;;;;;;4992400;28;20045;-72
2021/06/04 05:50:49;;;;;;;8.52;4.60;;;18.80;99.90;;;;;;4993020;28;20023;-72
2021/06/04 05:53:16;;;;;;;7.60;4.85;;;18.90;99.90;;;;;;4982960;28;20037;-72
2021/06/04 05:55:42;;;;;;;8.50;4.50;;;18.90;99.90;;;;;;4994963;28;20042;-72
2021/06/04 05:58:11;;;;;;;8.40;4.60;;;19.00;99.90;;;;;;4984790;28;20096;-72
2021/06/04 06:00:45;;;;;;;5.90;4.30;;;19.00;99.90;;;;;;4989235;28;20034;-72
2021/06/04 06:03:14;;;;;;;16.05;4.63;;;19.10;99.90;;;;;;4985596;28;20049;-73
2021/06/04 06:05:42;;;;;;;7.47;5.18;;;19.20;99.90;;;;;;4995830;28;20049;-72
2021/06/04 06:08:07;;;;;;;4.93;4.20;;;19.20;99.90;;;;;;5013557;28;20025;-72
2021/06/04 06:10:33;;;;;;;15.13;4.90;;;19.30;99.90;;;;;;4982294;28;20022;-72
2021/06/04 06:13:01;;;;;;;6.72;4.25;;;19.30;99.90;;;;;;4989463;28;20032;-72
2021/06/04 06:15:27;;;;;;;10.02;4.72;;;19.40;99.90;;;;;;4991556;28;20081;-72
2021/06/04 06:17:55;;;;;;;7.95;4.88;;;19.40;99.90;;;;;;4998650;28;20033;-72
2021/06/04 06:20:23;;;;;;;7.20;4.80;;;19.50;99.90;;;;;;4996376;28;20038;-72
2021/06/04 06:22:50;;;;;;;5.65;4.80;;;19.60;99.90;;;;;;4983218;28;20027;-72
2021/06/04 06:25:21;;;;;;;8.45;5.13;;;19.60;99.90;;;;;;4979627;28;20042;-72
2021/06/04 06:27:46;;;;;;;6.95;4.93;;;19.60;99.90;;;;;;4994291;28;20030;-72
2021/06/04 06:30:15;;;;;;;6.03;4.40;;;19.70;99.90;;;;;;4987862;28;20384;-71
2021/06/04 06:32:41;;;;;;;7.72;5.30;;;19.70;99.90;;;;;;5002526;28;20033;-72
2021/06/04 06:35:07;;;;;;;6.25;4.82;;;19.70;99.90;;;;;;4992592;28;20464;-72
2021/06/04 06:37:35;;;;;;;8.70;4.57;;;19.80;99.90;;;;;;4998193;28;20125;-71
2021/06/04 06:40:01;;;;;;;8.18;4.82;;;19.80;99.90;;;;;;4993128;28;20077;-72
2021/06/04 06:42:27;;;;;;;14.85;5.30;;;19.80;99.90;;;;;;4990365;28;20118;-72
2021/06/04 06:44:52;;;;;;;6.22;5.10;;;19.80;99.90;;;;;;4992125;28;20038;-71
2021/06/04 06:47:18;;;;;;;14.88;5.65;;;19.80;99.90;;;;;;4980423;28;20067;-71
2021/06/04 06:49:46;;;;;;;7.60;5.35;;;19.80;99.90;;;;;;4988096;28;20073;-72
2021/06/04 06:52:12;;;;;;;6.55;4.70;;;19.90;99.90;;;;;;4991355;28;20035;-72
2021/06/04 06:54:41;;;;;;;10.73;5.13;;;19.80;99.90;;;;;;4979909;28;20527;-72
2021/06/04 06:57:07;;;;;;;5.75;4.63;;;19.90;99.90;;;;;;4995179;28;20037;-72
2021/06/04 06:59:32;;;;;;;5.95;4.65;;;19.80;99.90;;;;;;4991498;28;20026;-72
2021/06/04 07:02:02;;;;;;;6.70;4.05;;;19.80;99.90;;;;;;4997843;28;20129;-71
2021/06/04 07:04:27;;;;;;;6.50;4.25;;;19.80;99.90;;;;;;4993460;28;20101;-72
2021/06/04 07:06:53;;;;;;;6.15;4.15;;;19.80;99.90;;;;;;4999709;28;20033;-72
2021/06/04 07:09:19;;;;;;;6.10;4.15;;;19.80;99.90;;;;;;4991366;28;20117;-72
2021/06/04 07:11:50;;;;;;;6.47;4.43;;;19.80;99.90;;;;;;4993644;28;20058;-72
2021/06/04 07:14:20;;;;;;;5.27;4.13;;;19.80;99.90;;;;;;4990500;28;20030;-72
2021/06/04 07:16:46;;;;;;;6.30;4.20;;;19.80;99.90;;;;;;4993958;28;20507;-72
2021/06/04 07:19:12;;;;;;;6.63;3.75;;;19.80;99.90;;;;;;4982536;28;20037;-71
2021/06/04 07:21:38;;;;;;;7.75;4.35;;;19.80;99.90;;;;;;4987185;28;20037;-72
2021/06/04 07:24:04;;;;;;;5.28;4.20;;;19.90;99.90;;;;;;4992263;28;20041;-72
2021/06/04 07:26:32;;;;;;;6.55;4.13;;;19.90;99.90;;;;;;4980268;28;20101;-72
2021/06/04 07:29:01;;;;;;;5.25;4.03;;;20.00;99.90;;;;;;4978783;28;20456;-69
2021/06/04 07:31:27;;;;;;;10.70;8.45;;;20.10;99.90;;;;;;4990221;28;20531;-68
2021/06/04 07:33:55;;;;;;;8.73;6.63;;;20.10;99.90;;;;;;4986871;28;20092;-69
2021/06/04 07:36:32;;;;;;;9.35;6.50;;;20.20;99.90;;;;;;4990371;28;20032;-71
2021/06/04 07:38:58;;;;;;;6.43;4.13;;;20.40;99.90;;;;;;4995828;28;20110;-72
2021/06/04 07:41:27;;;;;;;7.45;5.07;;;20.60;99.90;;;;;;4977135;28;20439;-71
2021/06/04 07:43:53;;;;;;;5.75;4.53;;;20.80;99.90;;;;;;4994741;28;20034;-70
2021/06/04 07:46:20;;;;;;;6.40;5.10;;;21.00;99.90;;;;;;4995623;28;20023;-70
2021/06/04 07:48:47;;;;;;;5.68;4.40;;;21.10;99.90;;;;;;4994669;28;20032;-72
2021/06/04 07:51:15;;;;;;;6.05;4.80;;;21.30;99.90;;;;;;4989973;28;20496;-72
2021/06/04 07:53:41;;;;;;;5.45;3.58;;;21.50;99.90;;;;;;4995690;28;20022;-72
2021/06/04 07:56:07;;;;;;;7.28;4.57;;;21.50;99.90;;;;;;4988647;28;20041;-72
2021/06/04 07:58:33;;;;;;;5.32;4.22;;;21.70;99.90;;;;;;4983012;28;20173;-72
2021/06/04 08:01:03;;;;;;;5.00;4.00;;;22.00;99.90;;;;;;4990880;28;20101;-72
2021/06/04 08:03:31;;;;;;;6.72;4.10;;;22.20;99.90;;;;;;4998358;28;20042;-73
2021/06/04 08:05:56;;;;;;;5.57;4.00;;;22.40;99.90;;;;;;4996659;28;20030;-71
2021/06/04 08:08:22;;;;;;;7.95;6.47;;;22.70;99.90;;;;;;4996492;28;20026;-70
2021/06/04 08:10:48;;;;;;;9.68;7.25;;;22.80;99.90;;;;;;4992236;28;20072;-71
2021/06/04 08:13:15;;;;;;;5.65;4.47;;;23.00;99.90;;;;;;4990985;28;20034;-70
2021/06/04 08:16:02;;;;;;;7.32;4.80;;;23.10;99.90;;;;;;4996864;28;20022;-70
2021/06/04 08:18:34;;;;;;;5.43;3.78;;;23.30;99.90;;;;;;4991628;28;20349;-69
2021/06/04 08:21:06;;;;;;;5.68;3.80;;;23.40;99.90;;;;;;5005764;28;20026;-71
2021/06/04 08:23:34;;;;;;;5.20;3.80;;;23.50;99.90;;;;;;4994696;28;20026;-70
2021/06/04 08:26:00;;;;;;;5.65;4.43;;;23.70;99.90;;;;;;4992214;28;20022;-70
2021/06/04 08:28:27;;;;;;;5.38;3.80;;;23.80;99.90;;;;;;4978289;28;20019;-72
2021/06/04 08:30:53;;;;;;;4.63;3.60;;;23.90;99.90;;;;;;4986229;28;20455;-72
2021/06/04 08:33:25;;;;;;;5.13;3.70;;;24.00;99.90;;;;;;4988364;28;20029;-72
2021/06/04 08:35:51;;;;;;;5.22;3.65;;;24.00;99.90;;;;;;4987896;28;20026;-73
2021/06/04 08:38:19;;;;;;;4.50;3.20;;;24.10;99.90;;;;;;4991331;28;20080;-73
2021/06/04 08:40:45;;;;;;;4.60;3.60;;;24.20;99.90;;;;;;4991554;28;20034;-73
2021/06/04 08:43:31;;;;;;;6.40;3.97;;;24.40;99.90;;;;;;4989298;28;20524;-72
2021/06/04 08:46:18;;;;;;;5.60;3.80;;;24.40;99.90;;;;;;4992096;28;20049;-73
2021/06/04 08:48:53;;;;;;;6.63;3.85;;;24.50;99.90;;;;;;4998562;28;20109;-73
2021/06/04 08:51:33;;;;;;;5.05;3.72;;;24.50;99.90;;;;;;4991182;28;20069;-73
2021/06/04 08:54:37;;;;;;;5.68;3.55;;;24.60;99.90;;;;;;4992774;28;20019;-73
2021/06/04 08:57:27;;;;;;;6.18;3.33;;;24.90;99.90;;;;;;4965477;28;20445;-73
2021/06/04 08:59:54;;;;;;;5.88;3.72;;;24.90;99.90;;;;;;5002178;28;20470;-73
2021/06/04 09:02:33;;;;;;;4.78;3.70;;;24.90;99.90;;;;;;4989487;28;20046;-73
2021/06/04 09:05:06;;;;;;;5.63;3.70;;;25.00;99.90;;;;;;4995672;28;20068;-73
2021/06/04 09:07:34;;;;;;;6.68;3.80;;;25.10;99.90;;;;;;4979460;28;20037;-73
2021/06/04 09:10:05;;;;;;;5.18;3.55;;;25.10;99.90;;;;;;4981289;28;20565;-73
2021/06/04 09:12:39;;;;;;;;;;;25.20;99.90;;;;;;4988664;28;20493;-74
2021/06/04 09:15:11;;;;;;;4.82;3.40;;;25.20;99.90;;;;;;5007502;28;20286;-74
2021/06/04 09:18:07;;;;;;;5.38;3.53;;;25.20;99.90;;;;;;4997224;28;20037;-72
2021/06/04 09:21:05;;;;;;;6.00;3.63;;;25.30;99.90;;;;;;4986700;28;20022;-73
2021/06/04 09:23:37;;;;;;;12.93;11.65;;;25.40;99.90;;;;;;4977031;28;20042;-74
2021/06/04 09:26:04;;;;;;;6.45;3.65;;;25.30;99.90;;;;;;4995258;28;20038;-73
2021/06/04 09:28:31;;;;;;;7.43;3.20;;;25.40;99.90;;;;;;4986880;28;20554;-74
2021/06/04 09:31:18;;;;;;;4.50;3.13;;;25.40;99.90;;;;;;5004981;28;20042;-74
2021/06/04 09:33:56;;;;;;;5.55;3.20;;;25.40;99.90;;;;;;4989533;28;20046;-73
2021/06/04 09:36:42;;;;;;;4.35;3.03;;;25.50;99.90;;;;;;4988209;28;20073;-74
2021/06/04 09:39:08;;;;;;;6.25;3.60;;;25.50;99.90;;;;;;4997191;28;20026;-74
2021/06/04 09:41:50;;;;;;;7.10;3.25;;;25.60;99.90;;;;;;4989708;28;20338;-74
2021/06/04 09:44:16;;;;;;;5.35;3.28;;;25.70;99.90;;;;;;4979936;28;20088;-73
2021/06/04 09:46:48;;;;;;;6.07;3.65;;;25.70;99.90;;;;;;4985195;28;20338;-73
2021/06/04 09:49:26;;;;;;;4.82;3.45;;;25.60;99.90;;;;;;4991083;28;20026;-74
2021/06/04 09:51:57;;;;;;;6.38;3.42;;;25.70;99.90;;;;;;4993730;28;20050;-74
2021/06/04 09:54:30;;;;;;;6.68;3.63;;;25.70;99.90;;;;;;4995068;28;20535;-74
2021/06/04 09:57:16;;;;;;;6.72;3.58;;;25.80;99.90;;;;;;4988937;28;20031;-74
2021/06/04 09:59:41;;;;;;;7.10;4.10;;;25.90;99.90;;;;;;4987505;28;20571;-73
2021/06/04 10:02:30;;;;;;;5.15;3.45;;;26.00;99.90;;;;;;4994499;28;20055;-74
2021/06/04 10:05:16;;;;;;;4.93;3.30;;;26.10;99.90;;;;;;4987597;28;20041;-74
2021/06/04 10:07:43;;;;;;;6.57;3.50;;;25.90;99.70;;;;;;4994771;28;20096;-74
2021/06/04 10:10:23;;;;;;;6.57;3.35;;;25.80;99.90;;;;;;4980458;28;20038;-74
2021/06/04 10:12:52;;;;;;;5.90;3.55;;;25.70;99.90;;;;;;4994092;28;20025;-74
2021/06/04 10:15:38;;;;;;;5.05;3.50;;;25.60;99.90;;;;;;4983762;28;20055;-74
2021/06/04 10:18:24;;;;;;;6.03;3.50;;;25.60;99.90;;;;;;4998182;28;20045;-74
2021/06/04 10:20:52;;;;;;;5.28;3.58;;;25.70;99.90;;;;;;4992605;28;20018;-74
2021/06/04 10:23:35;;;;;;;5.05;3.40;;;25.70;99.90;;;;;;4982462;28;20173;-74
2021/06/04 10:26:03;;;;;;;7.07;3.80;;;25.70;97.90;;;;;;4995608;28;20038;-74
2021/06/04 10:28:33;;;;;;;5.43;3.47;;;25.60;99.90;;;;;;4996159;28;20117;-74
2021/06/04 10:31:22;;;;;;;6.25;3.53;;;25.70;99.90;;;;;;4991231;28;20057;-74
2021/06/04 10:34:06;;;;;;;5.22;3.45;;;25.70;99.90;;;;;;4989887;28;20080;-74
2021/06/04 10:36:39;;;;;;;4.78;3.75;;;25.70;99.90;;;;;;4987932;28;20023;-75
2021/06/04 10:39:10;;;;;;;5.78;3.80;;;25.80;99.90;;;;;;4979744;28;20029;-75
2021/06/04 10:41:51;;;;;;;6.35;3.65;;;25.80;99.90;;;;;;4991152;28;20600;-75
2021/06/04 10:44:36;;;;;;;4.68;3.50;;;25.70;99.90;;;;;;4987791;28;20471;-76
2021/06/04 10:47:21;;;;;;;5.30;3.50;;;25.80;99.90;;;;;;4993243;28;20044;-75
2021/06/04 10:50:10;;;;;;;5.35;3.40;;;25.80;99.90;;;;;;4986961;28;20599;-75
2021/06/04 10:52:53;;;;;;;5.32;3.35;;;25.90;99.90;;;;;;4994485;28;20054;-75
2021/06/04 10:56:03;;;;;;;5.40;3.50;;;26.00;99.90;;;;;;4995844;28;20146;-76
2021/06/04 10:58:32;;;;;;;4.80;3.30;;;26.00;99.90;;;;;;4989638;28;20088;-75
2021/06/04 11:01:00;;;;;;;6.72;3.40;;;26.10;99.90;;;;;;4990874;28;20051;-76
2021/06/04 11:03:37;;;;;;;6.95;3.15;;;26.20;99.90;;;;;;4978002;28;20053;-76
2021/06/04 11:06:21;;;;;;;6.28;3.80;;;26.40;99.90;;;;;;4981004;28;20452;-77
2021/06/04 11:08:50;;;;;;;4.68;3.40;;;26.60;99.90;;;;;;5001388;28;20057;-77
2021/06/04 11:11:44;;;;;;;5.30;3.55;;;26.70;97.00;;;;;;5005646;28;20030;-74
2021/06/04 11:14:35;;;;;;;4.78;3.30;;;26.70;99.90;;;;;;4988876;28;20030;-76
2021/06/04 11:17:09;;;;;;;4.97;3.35;;;26.90;99.90;;;;;;4997254;28;20030;-76
2021/06/04 11:19:39;;;;;;;4.57;3.40;;;26.90;95.50;;;;;;4989797;28;20041;-75
2021/06/04 11:22:20;;;;;;;5.45;3.30;;;27.00;95.70;;;;;;4981763;28;20414;-76
2021/06/04 11:24:50;;;;;;;5.23;3.27;;;27.10;99.60;;;;;;4996036;28;20093;-73
2021/06/04 11:27:42;;;;;;;6.18;3.15;;;27.10;97.30;;;;;;4988147;28;20038;-79
2021/06/04 11:30:17;;;;;;;4.30;2.85;;;27.30;92.70;;;;;;4982722;28;20037;-72
2021/06/04 11:33:02;;;;;;;4.63;3.08;;;27.30;94.30;;;;;;4647020;28;10001241;-72
2021/06/04 11:35:48;;;;;;;4.68;3.05;;;27.50;90.10;;;;;;4985741;28;20022;-69
2021/06/04 11:38:44;;;;;;;4.88;2.78;;;27.50;82.40;;;;;;4991123;28;20022;-69
2021/06/04 11:41:42;;;;;;;3.97;2.70;;;27.50;77.20;;;;;;4984571;28;20029;-73
2021/06/04 11:44:41;;;;;;;4.90;2.92;;;27.70;92.10;;;;;;4995619;28;20045;-73
2021/06/04 11:47:13;;;;;;;5.60;2.70;;;28.00;94.90;;;;;;4990664;28;20124;-75
2021/06/04 11:50:02;;;;;;;4.18;2.78;;;28.00;93.50;;;;;;4981579;28;20045;-74
2021/06/04 11:52:37;;;;;;;5.32;2.78;;;28.10;80.50;;;;;;4984921;28;20026;-74
2021/06/04 11:55:22;;;;;;;5.18;2.67;;;28.30;95.80;;;;;;4989390;28;20561;-74
2021/06/04 11:57:55;;;;;;;6.35;3.00;;;28.50;96.20;;;;;;4974431;28;20026;-74
2021/06/04 12:00:55;;;;;;;5.65;3.00;;;28.50;81.80;;;;;;4994717;28;20061;-74
2021/06/04 12:03:35;;;;;;;4.87;2.90;;;28.60;79.30;;;;;;4988870;28;20100;-76
2021/06/04 12:06:26;;;;;;;4.78;2.90;;;28.70;79.20;;;;;;4992704;28;20026;-73
2021/06/04 12:08:55;;;;;;;4.75;3.08;;;28.80;77.70;;;;;;4994258;28;20030;-70
2021/06/04 12:11:21;;;;;;;9.73;8.40;;;28.50;76.40;;;;;;4990481;28;20034;-70
2021/06/04 12:13:51;;;;;;;5.93;3.20;;;28.60;81.70;;;;;;5004671;28;20034;-75
2021/06/04 12:19:01;;;;;;;4.75;2.80;;;28.90;80.00;;;;;;4988682;28;20363;-74
2021/06/04 12:21:42;;;;;;;5.32;2.95;;;28.90;76.00;;;;;;4989722;28;20970;-74
2021/06/04 12:24:17;;;;;;;5.22;3.00;;;29.00;84.50;;;;;;4986925;28;20076;-76
2021/06/04 12:26:44;;;;;;;6.28;2.80;;;29.10;80.10;;;;;;5001838;28;20472;-75
2021/06/04 12:29:31;;;;;;;5.47;2.95;;;29.40;85.60;;;;;;4978306;28;20555;-75
2021/06/04 12:32:07;;;;;;;5.75;3.33;;;29.30;74.60;;;;;;4986265;28;20542;-74
2021/06/04 12:34:42;;;;;;;6.57;3.08;;;29.00;68.00;;;;;;4987613;28;20040;-75
2021/06/04 12:37:12;;;;;;;6.45;3.20;;;28.90;73.70;;;;;;4992450;28;20037;-75
2021/06/04 12:40:00;;;;;;;7.05;3.33;;;28.60;72.40;;;;;;4978196;28;20535;-76
2021/06/04 12:42:28;;;;;;;7.43;3.50;;;28.30;77.50;;;;;;4976904;28;20576;-76
2021/06/04 12:45:14;;;;;;;6.25;3.63;;;28.40;78.50;;;;;;4985719;28;20093;-76
2021/06/04 12:47:45;;;;;;;5.85;3.25;;;28.40;80.00;;;;;;5001136;28;20456;-74
2021/06/04 12:50:27;;;;;;;6.30;3.42;;;28.40;69.90;;;;;;4986463;28;20121;-75
2021/06/04 12:53:11;;;;;;;5.25;3.47;;;28.50;72.90;;;;;;4987267;28;20038;-76
2021/06/04 12:55:37;;;;;;;5.70;3.80;;;28.70;81.40;;;;;;4994260;28;20093;-75
2021/06/04 12:58:17;;;;;;;8.43;4.15;;;28.90;80.50;;;;;;4978356;28;20499;-76
2021/06/04 13:00:43;;;;;;;5.40;3.50;;;29.00;72.70;;;;;;5002423;28;20030;-76
2021/06/04 13:03:13;;;;;;;7.05;3.92;;;28.80;77.50;;;;;;4993821;28;20119;-77
2021/06/04 13:05:38;;;;;;;5.88;3.70;;;28.60;71.00;;;;;;4992452;28;20117;-74
2021/06/04 13:08:10;;;;;;;6.20;3.85;;;28.50;73.50;;;;;;4986417;28;20122;-76
2021/06/04 13:10:45;;;;;;;7.22;3.90;;;28.50;75.00;;;;;;5002000;28;20041;-75
2021/06/04 13:13:27;;;;;;;8.73;4.20;;;28.40;75.50;;;;;;4987482;28;20023;-75
2021/06/04 13:15:53;;;;;;;;;;;28.20;79.90;;;;;;4993049;28;20030;-71